sensor_id;sensor_type;location;lat;lon;timestamp;P1;durP1;ratioP1;P2;durP2;ratioP2
50563;SDS011;36514;52.590;21.448;2022-07-04T06:44:34;10.52;;;5.91;;
50563;SDS011;36514;52.590;21.448;2022-07-04T06:54:41;6.11;;;5.61;;
50563;SDS011;36514;52.590;21.448;2022-07-04T07:04:50;5.78;;;4.85;;
50563;SDS011;36514;52.590;21.448;2022-07-04T07:15:02;4.65;;;4.20;;
50563;SDS011;36514;52.590;21.448;2022-07-04T07:24:59;5.49;;;4.68;;
50563;SDS011;36514;52.590;21.448;2022-07-04T07:34:56;6.33;;;5.65;;
50563;SDS011;36514;52.590;21.448;2022-07-04T07:44:57;10.91;;;7.47;;
50563;SDS011;36514;52.590;21.448;2022-07-04T07:55:28;6.05;;;4.97;;
50563;SDS011;36514;52.590;21.448;2022-07-04T08:05:30;4.08;;;3.81;;
50563;SDS011;36514;52.590;21.448;2022-07-04T08:15:57;3.75;;;3.48;;
50563;SDS011;36514;52.590;21.448;2022-07-04T08:26:05;5.68;;;5.00;;
50563;SDS011;36514;52.590;21.448;2022-07-04T08:36:03;5.74;;;5.07;;
50563;SDS011;36514;52.590;21.448;2022-07-04T08:46:12;4.89;;;4.39;;
50563;SDS011;36514;52.590;21.448;2022-07-04T08:56:20;4.47;;;3.85;;
50563;SDS011;36514;52.590;21.448;2022-07-04T09:06:24;5.40;;;4.63;;
50563;SDS011;36514;52.590;21.448;2022-07-04T09:16:13;4.00;;;3.65;;
50563;SDS011;36514;52.590;21.448;2022-07-04T09:26:20;2.78;;;2.55;;
50563;SDS011;36514;52.590;21.448;2022-07-04T09:36:31;3.17;;;2.83;;
50563;SDS011;36514;52.590;21.448;2022-07-04T09:46:23;3.55;;;3.28;;
50563;SDS011;36514;52.590;21.448;2022-07-04T09:56:50;4.97;;;3.89;;
50563;SDS011;36514;52.590;21.448;2022-07-04T10:06:50;4.05;;;3.80;;
50563;SDS011;36514;52.590;21.448;2022-07-04T10:16:41;4.79;;;4.34;;
50563;SDS011;36514;52.590;21.448;2022-07-04T10:26:41;3.45;;;3.25;;
50563;SDS011;36514;52.590;21.448;2022-07-04T10:36:18;3.60;;;3.30;;
50563;SDS011;36514;52.590;21.448;2022-07-04T10:46:32;3.66;;;2.60;;
50563;SDS011;36514;52.590;21.448;2022-07-04T10:56:34;2.60;;;2.36;;
50563;SDS011;36514;52.590;21.448;2022-07-04T11:16:27;1.73;;;1.65;;
50563;SDS011;36514;52.590;21.448;2022-07-04T11:26:45;2.38;;;1.92;;
50563;SDS011;36514;52.590;21.448;2022-07-04T11:36:40;1.38;;;1.17;;
50563;SDS011;36514;52.590;21.448;2022-07-04T11:46:42;1.88;;;1.39;;
50563;SDS011;36514;52.590;21.448;2022-07-04T11:56:37;2.00;;;1.57;;
50563;SDS011;36514;52.590;21.448;2022-07-04T12:06:35;4.05;;;2.17;;
50563;SDS011;36514;52.590;21.448;2022-07-04T12:16:41;1.98;;;1.51;;
50563;SDS011;36514;52.590;21.448;2022-07-04T12:26:45;1.67;;;1.46;;
50563;SDS011;36514;52.590;21.448;2022-07-04T12:36:52;1.67;;;1.51;;
50563;SDS011;36514;52.590;21.448;2022-07-04T12:46:47;1.65;;;1.48;;
50563;SDS011;36514;52.590;21.448;2022-07-04T12:57:02;3.98;;;3.64;;
50563;SDS011;36514;52.590;21.448;2022-07-04T13:07:15;4.38;;;1.95;;
50563;SDS011;36514;52.590;21.448;2022-07-04T13:17:28;2.80;;;2.55;;
50563;SDS011;36514;52.590;21.448;2022-07-04T13:27:50;2.20;;;1.48;;
50563;SDS011;36514;52.590;21.448;2022-07-04T13:37:52;2.25;;;2.08;;
50563;SDS011;36514;52.590;21.448;2022-07-04T13:47:55;2.13;;;1.73;;
50563;SDS011;36514;52.590;21.448;2022-07-04T13:58:03;2.07;;;1.90;;
50563;SDS011;36514;52.590;21.448;2022-07-04T14:08:05;1.96;;;1.80;;
50563;SDS011;36514;52.590;21.448;2022-07-04T14:18:10;2.08;;;1.66;;
50563;SDS011;36514;52.590;21.448;2022-07-04T14:28:12;1.81;;;1.47;;
50563;SDS011;36514;52.590;21.448;2022-07-04T14:38:10;1.50;;;1.40;;
50563;SDS011;36514;52.590;21.448;2022-07-04T14:48:06;2.97;;;1.48;;
50563;SDS011;36514;52.590;21.448;2022-07-04T14:58:03;2.05;;;1.65;;
50563;SDS011;36514;52.590;21.448;2022-07-04T15:08:07;2.07;;;1.58;;
50563;SDS011;36514;52.590;21.448;2022-07-04T15:18:03;1.20;;;1.02;;
50563;SDS011;36514;52.590;21.448;2022-07-04T15:28:05;2.20;;;1.62;;
50563;SDS011;36514;52.590;21.448;2022-07-04T15:38:05;2.09;;;1.61;;
50563;SDS011;36514;52.590;21.448;2022-07-04T15:47:57;3.22;;;2.46;;
50563;SDS011;36514;52.590;21.448;2022-07-04T15:57:53;2.69;;;2.08;;
50563;SDS011;36514;52.590;21.448;2022-07-04T16:07:54;2.15;;;1.62;;
50563;SDS011;36514;52.590;21.448;2022-07-04T16:17:51;2.08;;;1.25;;
50563;SDS011;36514;52.590;21.448;2022-07-04T16:27:57;1.83;;;1.67;;
50563;SDS011;36514;52.590;21.448;2022-07-04T16:38:00;2.97;;;2.00;;
50563;SDS011;36514;52.590;21.448;2022-07-04T16:47:57;3.79;;;2.15;;
50563;SDS011;36514;52.590;21.448;2022-07-04T16:57:51;6.68;;;2.45;;
50563;SDS011;36514;52.590;21.448;2022-07-04T17:07:46;5.53;;;3.17;;
50563;SDS011;36514;52.590;21.448;2022-07-04T17:17:50;6.45;;;5.09;;
50563;SDS011;36514;52.590;21.448;2022-07-04T17:27:47;3.30;;;3.08;;
50563;SDS011;36514;52.590;21.448;2022-07-04T17:37:53;3.61;;;2.74;;
50563;SDS011;36514;52.590;21.448;2022-07-04T17:47:57;4.66;;;3.83;;
50563;SDS011;36514;52.590;21.448;2022-07-04T17:57:55;5.75;;;3.13;;
50563;SDS011;36514;52.590;21.448;2022-07-04T18:07:52;3.67;;;3.22;;
50563;SDS011;36514;52.590;21.448;2022-07-04T18:17:50;2.00;;;1.77;;
50563;SDS011;36514;52.590;21.448;2022-07-04T18:27:52;5.90;;;5.39;;
50563;SDS011;36514;52.590;21.448;2022-07-04T18:37:54;4.51;;;3.03;;
50563;SDS011;36514;52.590;21.448;2022-07-04T18:47:54;4.05;;;3.07;;
50563;SDS011;36514;52.590;21.448;2022-07-04T18:57:56;3.82;;;3.48;;
50563;SDS011;36514;52.590;21.448;2022-07-04T19:07:59;6.00;;;4.61;;
50563;SDS011;36514;52.590;21.448;2022-07-04T19:17:56;5.03;;;4.53;;
50563;SDS011;36514;52.590;21.448;2022-07-04T19:27:59;4.62;;;3.97;;
50563;SDS011;36514;52.590;21.448;2022-07-04T19:37:56;12.35;;;4.88;;
50563;SDS011;36514;52.590;21.448;2022-07-04T19:47:53;12.60;;;5.05;;
50563;SDS011;36514;52.590;21.448;2022-07-04T19:57:51;4.97;;;3.75;;
50563;SDS011;36514;52.590;21.448;2022-07-04T20:07:54;5.79;;;5.26;;
50563;SDS011;36514;52.590;21.448;2022-07-04T20:17:57;8.84;;;6.77;;
50563;SDS011;36514;52.590;21.448;2022-07-04T20:27:55;10.73;;;5.85;;
50563;SDS011;36514;52.590;21.448;2022-07-04T20:37:52;14.13;;;8.18;;
50563;SDS011;36514;52.590;21.448;2022-07-04T20:47:51;8.15;;;6.72;;
50563;SDS011;36514;52.590;21.448;2022-07-04T20:57:49;8.93;;;8.05;;
